Pilot Grove, Missouri
Current Conditions -  °F | °C
As of 2:35 AM on Sunday 26 Oct 2014 (Local Time) from KVER Reporting Station
Clear Clear  
Wind Chill: 56°   Ceiling: Unl
Heat Index: 56°   Visibility: 10mi
Dew Point: 49°   Wind: 3mph
Humidity: 75%   Direction: 80°E
Pressure: 30.01"   Gusts: NA
Location:  38.87°N, 92.91°W
Report Text: KVER 260735Z AUTO 08003KT 10SM CLR 14/09 A3001 RMK AO2 T01350092
Loading
Personal Weather Stations






























Interactive Weather Map
Tropical Storm Tracking
New forecast layout! Learn more

10-Day Weather Forecast

Advertisements
Track Severe Weather on mobile